Time;durP1;ratioP1;P1;durP2;ratioP2;P2;SDS_P1;SDS_P2;PMS_P1;PMS_P2;Temp;Humidity;BMP_temperature;BMP_pressure;BME280_temperature;BME280_humidity;BME280_pressure;Samples;Min_cycle;Max_cycle;Signal;HPM_P1;HPM_P2
2020/12/17 00:01:10;;;;;;;7.90;5.57;;;8.40;90.60;;;;;;10035890;28;20503;-66
2020/12/17 00:06:00;;;;;;;11.55;6.10;;;8.40;90.50;;;;;;10038880;28;20030;-66
2020/12/17 00:10:51;;;;;;;9.50;6.63;;;8.40;90.40;;;;;;10046607;28;20064;-66
2020/12/17 00:15:41;;;;;;;12.55;6.30;;;8.30;90.50;;;;;;10039679;28;20036;-66
2020/12/17 00:20:32;;;;;;;9.25;5.80;;;8.30;90.50;;;;;;10042123;28;20037;-65
2020/12/17 00:25:23;;;;;;;11.18;5.57;;;8.20;90.50;;;;;;10042898;28;20026;-66
2020/12/17 00:30:16;;;;;;;11.82;5.40;;;8.20;90.40;;;;;;10044152;28;20063;-66
2020/12/17 00:35:08;;;;;;;11.07;6.15;;;8.10;90.40;;;;;;10034946;28;20041;-65
2020/12/17 00:39:59;;;;;;;10.93;6.40;;;8.10;90.40;;;;;;10038574;28;20033;-66
2020/12/17 00:44:50;;;;;;;8.88;5.53;;;8.00;90.40;;;;;;10040537;28;20069;-66
2020/12/17 00:49:41;;;;;;;11.90;6.13;;;8.00;90.40;;;;;;10042067;28;20085;-66
2020/12/17 00:54:32;;;;;;;10.70;5.95;;;8.00;90.40;;;;;;10043414;28;20553;-66
2020/12/17 00:59:22;;;;;;;8.52;5.93;;;7.90;90.40;;;;;;10049039;28;20447;-66
2020/12/17 01:04:13;;;;;;;12.50;6.15;;;7.90;90.30;;;;;;10040862;28;20025;-66
2020/12/17 01:09:03;;;;;;;12.52;6.40;;;7.90;90.30;;;;;;10037179;28;20033;-67
2020/12/17 01:13:54;;;;;;;11.40;6.07;;;7.80;90.40;;;;;;10040720;28;20764;-66
2020/12/17 01:18:45;;;;;;;12.50;6.03;;;7.80;90.30;;;;;;10046218;28;20120;-66
2020/12/17 01:23:35;;;;;;;11.40;6.45;;;7.80;90.20;;;;;;10046440;28;20064;-66
2020/12/17 01:28:26;;;;;;;8.68;5.53;;;7.80;90.30;;;;;;10041683;28;20446;-66
2020/12/17 01:33:18;;;;;;;9.10;5.97;;;7.90;90.20;;;;;;10045157;28;20099;-67
2020/12/17 01:38:08;;;;;;;10.35;6.07;;;7.80;90.20;;;;;;10044144;28;20034;-66
2020/12/17 01:42:59;;;;;;;9.07;5.38;;;7.80;90.10;;;;;;10038163;28;20033;-66
2020/12/17 01:47:52;;;;;;;9.93;6.18;;;7.80;90.10;;;;;;10042242;28;20034;-65
2020/12/17 01:52:43;;;;;;;9.38;5.68;;;7.80;90.10;;;;;;10050427;28;20471;-66
2020/12/17 01:57:35;;;;;;;10.32;5.43;;;7.70;90.10;;;;;;10050873;28;20119;-66
2020/12/17 02:02:27;;;;;;;8.45;5.45;;;7.70;90.10;;;;;;10045881;28;20069;-66
2020/12/17 02:07:19;;;;;;;15.65;6.78;;;7.70;90.10;;;;;;10053042;28;20017;-66
2020/12/17 02:12:09;;;;;;;12.40;5.80;;;7.60;90.20;;;;;;10043758;28;20472;-67
2020/12/17 02:17:00;;;;;;;11.48;6.32;;;7.70;90.20;;;;;;10042863;28;20079;-66
2020/12/17 02:21:51;;;;;;;12.18;6.45;;;7.60;90.10;;;;;;10034225;28;20033;-68
2020/12/17 02:26:41;;;;;;;11.13;6.78;;;7.60;90.10;;;;;;10044074;28;20081;-66
2020/12/17 02:31:35;;;;;;;14.65;6.28;;;7.60;90.10;;;;;;10041629;28;20492;-67
2020/12/17 02:36:25;;;;;;;14.20;6.43;;;7.60;90.10;;;;;;10042554;28;20125;-67
2020/12/17 02:41:16;;;;;;;11.18;5.75;;;7.50;90.00;;;;;;10045851;28;20438;-67
2020/12/17 02:46:08;;;;;;;13.35;7.18;;;7.50;90.10;;;;;;10051102;28;20040;-67
2020/12/17 02:50:58;;;;;;;10.43;6.00;;;7.60;90.00;;;;;;10046494;28;20404;-65
2020/12/17 02:55:49;;;;;;;8.73;5.85;;;7.50;89.90;;;;;;10050618;28;20037;-66
2020/12/17 03:00:40;;;;;;;10.27;6.05;;;7.50;90.20;;;;;;10044773;28;20059;-66
2020/12/17 03:05:30;;;;;;;7.65;5.55;;;7.50;90.00;;;;;;10048257;28;20025;-67
2020/12/17 03:10:22;;;;;;;11.02;4.80;;;7.40;90.00;;;;;;10042986;28;20083;-66
2020/12/17 03:15:13;;;;;;;11.48;6.25;;;7.50;89.90;;;;;;10043102;28;20530;-66
2020/12/17 03:20:05;;;;;;;19.08;8.05;;;7.40;89.90;;;;;;10033706;28;20028;-66
2020/12/17 03:24:56;;;;;;;12.90;6.30;;;7.50;89.80;;;;;;10037387;28;20025;-66
2020/12/17 03:29:46;;;;;;;11.38;5.63;;;7.40;89.80;;;;;;10039876;28;20296;-66
2020/12/17 03:34:37;;;;;;;10.93;5.53;;;7.50;89.70;;;;;;10036950;28;20381;-66
2020/12/17 03:39:27;;;;;;;10.63;6.10;;;7.40;89.70;;;;;;10043201;28;20143;-67
2020/12/17 03:44:18;;;;;;;10.57;5.35;;;7.40;89.70;;;;;;10041166;28;20112;-65
2020/12/17 03:49:08;;;;;;;11.60;5.57;;;7.40;89.70;;;;;;10041010;28;20500;-66
2020/12/17 03:53:59;;;;;;;10.55;5.38;;;7.40;89.60;;;;;;10039930;28;20025;-66
2020/12/17 03:58:50;;;;;;;10.15;5.28;;;7.30;89.70;;;;;;10037475;28;20026;-66
2020/12/17 04:03:40;;;;;;;12.18;5.63;;;7.30;89.90;;;;;;10035630;28;20133;-66
2020/12/17 04:08:31;;;;;;;12.93;7.25;;;7.20;89.70;;;;;;10032605;28;20388;-66
2020/12/17 04:13:21;;;;;;;10.70;5.50;;;7.20;89.70;;;;;;10034924;28;20393;-66
2020/12/17 04:18:12;;;;;;;8.35;5.13;;;7.30;89.60;;;;;;10034259;28;20440;-66
2020/12/17 04:23:02;;;;;;;11.27;5.57;;;7.30;89.60;;;;;;10033903;28;20035;-66
2020/12/17 04:27:53;;;;;;;11.00;5.20;;;7.30;89.60;;;;;;10050624;28;20025;-66
2020/12/17 04:32:43;;;;;;;10.10;5.78;;;7.30;89.60;;;;;;10051880;28;20025;-67
2020/12/17 04:37:34;;;;;;;13.63;6.07;;;7.20;89.50;;;;;;10050384;28;20115;-67
2020/12/17 04:42:25;;;;;;;10.35;5.65;;;7.20;89.40;;;;;;10048287;28;20084;-67
2020/12/17 04:47:19;;;;;;;9.82;5.15;;;7.20;89.40;;;;;;10053955;28;20049;-67
2020/12/17 04:52:14;;;;;;;12.40;5.72;;;7.20;89.30;;;;;;10054453;28;20029;-67
2020/12/17 04:57:06;;;;;;;12.00;6.05;;;7.30;89.30;;;;;;10048051;28;20030;-67
2020/12/17 05:02:03;;;;;;;8.43;4.90;;;7.30;89.10;;;;;;10052821;28;20028;-67
2020/12/17 05:06:55;;;;;;;8.95;5.05;;;7.30;89.10;;;;;;10038609;28;20053;-67
2020/12/17 05:11:46;;;;;;;10.23;5.05;;;7.40;88.90;;;;;;10036485;28;20042;-67
2020/12/17 05:16:37;;;;;;;9.65;5.78;;;7.40;88.70;;;;;;10044149;28;20032;-66
2020/12/17 05:21:28;;;;;;;12.25;5.65;;;7.40;88.60;;;;;;10036770;28;20029;-65
2020/12/17 05:26:24;;;;;;;10.52;6.13;;;7.40;88.60;;;;;;10042799;28;20026;-66
2020/12/17 05:31:20;;;;;;;10.90;5.00;;;7.30;88.60;;;;;;10051796;28;20457;-66
2020/12/17 05:36:11;;;;;;;9.27;5.03;;;7.30;88.80;;;;;;10038999;28;20033;-65
2020/12/17 05:41:06;;;;;;;8.82;4.65;;;7.30;88.60;;;;;;10040578;28;20032;-66
2020/12/17 05:45:57;;;;;;;12.30;5.32;;;7.30;88.50;;;;;;10044410;28;20494;-67
2020/12/17 05:50:49;;;;;;;9.18;5.43;;;7.40;88.40;;;;;;10061026;28;20980;-67
2020/12/17 05:55:40;;;;;;;10.82;5.47;;;7.40;88.40;;;;;;10045712;28;20040;-67
2020/12/17 06:00:30;;;;;;;7.72;4.47;;;7.40;88.30;;;;;;10042738;28;20045;-66
2020/12/17 06:05:27;;;;;;;8.35;5.00;;;7.40;88.20;;;;;;10038130;28;20063;-67
2020/12/17 06:10:17;;;;;;;8.75;4.60;;;7.50;88.10;;;;;;10050411;28;20137;-67
2020/12/17 06:15:08;;;;;;;8.63;3.85;;;7.50;88.00;;;;;;10055945;28;20113;-66
2020/12/17 06:20:02;;;;;;;9.75;5.57;;;7.60;88.10;;;;;;10050207;28;20052;-67
2020/12/17 06:24:53;;;;;;;9.88;5.50;;;7.60;88.90;;;;;;10040939;28;20034;-67
2020/12/17 06:29:51;;;;;;;10.85;4.85;;;7.70;88.30;;;;;;10030346;28;20146;-66
2020/12/17 06:34:44;;;;;;;10.40;4.90;;;7.80;88.30;;;;;;10043094;28;20389;-66
2020/12/17 06:39:35;;;;;;;10.20;4.95;;;7.80;88.20;;;;;;10046463;28;20049;-66
2020/12/17 06:44:31;;;;;;;9.18;4.90;;;7.80;87.90;;;;;;10043422;28;20029;-67
2020/12/17 06:49:25;;;;;;;;;;;7.90;87.90;;;;;;10049165;28;20063;-67
2020/12/17 06:54:16;;;;;;;10.77;5.93;;;7.90;87.70;;;;;;10050496;28;19971;-66
2020/12/17 06:59:18;;;;;;;11.02;5.18;;;7.90;87.80;;;;;;10044995;28;20500;-67
2020/12/17 07:04:10;;;;;;;11.07;5.30;;;8.00;87.40;;;;;;10049051;28;20538;-66
2020/12/17 07:09:00;;;;;;;11.18;6.07;;;8.00;87.40;;;;;;10046041;28;20018;-67
2020/12/17 07:13:54;;;;;;;9.13;4.65;;;8.10;87.30;;;;;;10045829;28;20052;-66
2020/12/17 07:18:44;;;;;;;7.55;3.92;;;8.10;87.10;;;;;;10047788;28;20128;-67
2020/12/17 07:23:36;;;;;;;7.53;4.15;;;8.10;86.90;;;;;;10049324;28;20369;-67
2020/12/17 07:28:27;;;;;;;8.15;4.32;;;8.10;86.80;;;;;;10041037;28;20018;-66
2020/12/17 07:33:37;;;;;;;10.80;5.72;;;8.10;86.70;;;;;;10039944;28;20029;-64
2020/12/17 07:38:28;;;;;;;7.35;4.25;;;8.10;86.50;;;;;;10035275;28;20033;-69
2020/12/17 07:43:20;;;;;;;7.78;4.30;;;8.10;86.30;;;;;;10035339;28;20029;-65
2020/12/17 07:48:32;;;;;;;8.68;4.75;;;8.10;86.30;;;;;;10030499;28;20037;-68
2020/12/17 07:53:24;;;;;;;10.02;4.75;;;8.10;86.10;;;;;;10031979;28;20059;-64
2020/12/17 07:58:15;;;;;;;12.55;5.25;;;8.10;86.30;;;;;;10034246;28;20051;-66
2020/12/17 08:03:06;;;;;;;9.20;4.93;;;8.10;86.30;;;;;;10045040;28;20411;-65
2020/12/17 08:07:57;;;;;;;8.32;4.78;;;8.10;86.50;;;;;;10048066;28;20091;-65
2020/12/17 08:12:47;;;;;;;10.25;4.82;;;8.20;86.10;;;;;;10049583;28;20040;-64
2020/12/17 08:17:38;;;;;;;10.93;5.03;;;8.20;86.30;;;;;;10042981;28;20087;-67
2020/12/17 08:22:29;;;;;;;10.38;4.07;;;8.20;86.30;;;;;;10043239;28;20115;-67
2020/12/17 08:27:23;;;;;;;11.50;5.60;;;8.30;86.40;;;;;;10043136;28;20037;-66
2020/12/17 08:32:14;;;;;;;5.97;4.43;;;8.40;86.10;;;;;;10039756;28;20036;-67
2020/12/17 08:37:05;;;;;;;8.98;4.68;;;8.50;85.70;;;;;;10043469;28;20842;-67
2020/12/17 08:42:07;;;;;;;10.57;5.50;;;8.50;85.60;;;;;;10040840;28;20330;-67
2020/12/17 08:46:59;;;;;;;8.60;4.90;;;8.60;85.60;;;;;;10047602;28;20061;-67
2020/12/17 08:51:50;;;;;;;6.72;3.17;;;8.50;85.40;;;;;;10043782;28;20778;-68
2020/12/17 08:56:42;;;;;;;12.80;5.45;;;8.60;85.10;;;;;;10042448;28;20037;-67
2020/12/17 09:01:35;;;;;;;8.95;4.18;;;8.50;85.50;;;;;;10043455;28;20087;-66
2020/12/17 09:06:31;;;;;;;12.85;5.50;;;8.50;85.40;;;;;;10046215;28;20146;-67
2020/12/17 09:11:33;;;;;;;10.57;5.07;;;8.40;85.30;;;;;;10040057;28;20087;-65
2020/12/17 09:16:26;;;;;;;10.75;5.07;;;8.40;85.40;;;;;;10046212;28;20466;-67
2020/12/17 09:21:17;;;;;;;8.02;4.95;;;8.40;85.10;;;;;;10043539;28;20037;-68
2020/12/17 09:26:15;;;;;;;9.13;4.30;;;8.40;85.10;;;;;;10050209;28;20020;-65
2020/12/17 09:31:21;;;;;;;11.57;4.85;;;8.40;85.00;;;;;;10037335;28;20301;-65
2020/12/17 09:36:16;;;;;;;11.98;5.15;;;8.50;85.20;;;;;;10044395;28;20100;-67
2020/12/17 09:41:07;;;;;;;13.10;5.30;;;8.50;84.70;;;;;;10037356;28;20064;-66
2020/12/17 09:45:58;;;;;;;9.60;4.22;;;8.70;84.60;;;;;;10045491;28;20055;-65
2020/12/17 09:51:09;;;;;;;10.93;5.82;;;8.80;84.40;;;;;;10029479;28;20037;-65
2020/12/17 09:55:59;;;;;;;6.30;4.70;;;8.90;84.30;;;;;;10049369;28;20503;-64
2020/12/17 10:00:50;;;;;;;11.30;5.47;;;9.00;84.20;;;;;;10046970;28;20038;-66
2020/12/17 10:05:41;;;;;;;8.77;4.55;;;9.00;83.90;;;;;;10040716;28;20520;-66
2020/12/17 10:10:34;;;;;;;6.72;4.75;;;9.00;84.20;;;;;;10039183;28;20040;-65
2020/12/17 10:15:25;;;;;;;9.48;5.20;;;9.10;84.40;;;;;;10043964;28;20087;-66
2020/12/17 10:20:16;;;;;;;10.57;5.07;;;9.00;84.10;;;;;;10044022;28;20032;-64
2020/12/17 10:25:06;;;;;;;8.45;5.30;;;9.10;84.10;;;;;;10039301;28;20056;-66
2020/12/17 10:29:57;;;;;;;9.57;4.72;;;9.10;83.90;;;;;;10041153;28;20080;-65
2020/12/17 10:34:47;;;;;;;9.63;5.85;;;9.10;84.10;;;;;;10042350;28;20047;-65
2020/12/17 10:39:38;;;;;;;9.35;4.97;;;9.10;83.90;;;;;;10035924;28;20781;-65
2020/12/17 10:44:28;;;;;;;11.75;5.03;;;9.10;84.00;;;;;;10037083;28;20641;-67
2020/12/17 10:49:19;;;;;;;10.48;5.53;;;9.10;84.20;;;;;;10036298;28;20044;-66
2020/12/17 10:54:10;;;;;;;11.25;5.00;;;9.30;83.90;;;;;;10039988;28;20079;-65
2020/12/17 10:59:01;;;;;;;8.23;5.07;;;9.30;83.90;;;;;;10046921;28;20515;-67
2020/12/17 11:03:52;;;;;;;7.43;4.72;;;9.40;83.60;;;;;;10043267;28;20041;-66
2020/12/17 11:08:43;;;;;;;10.75;6.18;;;9.40;83.80;;;;;;10040138;28;20028;-67
2020/12/17 11:13:34;;;;;;;10.18;4.95;;;9.60;83.50;;;;;;10048892;28;20127;-67
2020/12/17 11:18:24;;;;;;;9.70;5.28;;;9.70;83.20;;;;;;10044979;28;20029;-67
2020/12/17 11:23:15;;;;;;;10.48;5.93;;;9.90;83.10;;;;;;10038493;28;20511;-66
2020/12/17 11:28:06;;;;;;;13.18;6.25;;;10.00;82.80;;;;;;10035232;28;20029;-68
2020/12/17 11:32:57;;;;;;;11.25;5.85;;;10.10;82.90;;;;;;10040663;28;20078;-65
2020/12/17 11:37:50;;;;;;;10.20;6.70;;;10.20;82.60;;;;;;10041664;28;20033;-66
2020/12/17 11:42:41;;;;;;;16.17;8.52;;;10.50;82.40;;;;;;10047845;28;20507;-67
2020/12/17 11:47:31;;;;;;;10.45;5.63;;;10.50;82.70;;;;;;10046179;28;20092;-66
2020/12/17 11:52:22;;;;;;;11.68;6.45;;;10.40;82.80;;;;;;10044597;28;20331;-65
2020/12/17 11:57:12;;;;;;;10.23;6.18;;;10.50;83.00;;;;;;10043910;28;20076;-64
2020/12/17 12:02:08;;;;;;;11.70;6.50;;;10.40;82.80;;;;;;10038927;28;20041;-65
2020/12/17 12:06:59;;;;;;;9.48;5.40;;;10.40;82.70;;;;;;10042139;28;20022;-66
2020/12/17 12:11:55;;;;;;;9.85;6.00;;;10.50;83.20;;;;;;10034411;28;20088;-67
2020/12/17 12:16:46;;;;;;;7.22;5.47;;;10.60;82.60;;;;;;10042365;28;20037;-65
2020/12/17 12:21:40;;;;;;;8.10;4.43;;;10.60;82.60;;;;;;10039073;28;20033;-65
2020/12/17 12:26:30;;;;;;;10.57;5.75;;;10.70;82.50;;;;;;10044140;28;20424;-65
2020/12/17 12:31:21;;;;;;;12.00;4.97;;;10.80;82.10;;;;;;10037473;28;20106;-67
2020/12/17 12:36:12;;;;;;;7.68;4.60;;;10.80;82.20;;;;;;10045833;28;20044;-66
2020/12/17 12:41:03;;;;;;;8.13;4.25;;;10.80;82.30;;;;;;10043384;28;20029;-66
2020/12/17 12:45:53;;;;;;;7.07;4.22;;;10.90;82.30;;;;;;10045719;28;20119;-64
2020/12/17 12:50:48;;;;;;;7.45;4.30;;;11.00;82.40;;;;;;10039981;28;20079;-65
2020/12/17 12:55:39;;;;;;;6.90;4.07;;;11.10;82.10;;;;;;10042396;28;20041;-65
2020/12/17 13:00:30;;;;;;;10.32;4.38;;;11.00;81.90;;;;;;10046997;28;20559;-65
2020/12/17 13:05:20;;;;;;;7.25;3.95;;;11.10;82.00;;;;;;10046527;28;20025;-65
2020/12/17 13:10:12;;;;;;;8.68;4.43;;;11.00;81.70;;;;;;10039405;28;20130;-66
2020/12/17 13:15:02;;;;;;;5.80;3.88;;;11.10;82.00;;;;;;10043333;28;20032;-64
2020/12/17 13:19:53;;;;;;;7.10;4.35;;;11.00;81.90;;;;;;10048767;28;20032;-66
2020/12/17 13:24:44;;;;;;;9.77;4.22;;;11.10;81.80;;;;;;10036304;28;20030;-64
2020/12/17 13:29:34;;;;;;;9.25;3.97;;;11.10;81.70;;;;;;10040080;28;20041;-63
2020/12/17 13:34:25;;;;;;;9.20;4.30;;;11.00;81.70;;;;;;10042171;28;20049;-66
2020/12/17 13:39:15;;;;;;;5.65;4.18;;;11.00;81.70;;;;;;10040758;28;20044;-68
2020/12/17 13:44:06;;;;;;;5.13;3.50;;;11.00;82.00;;;;;;10044922;28;20025;-67
2020/12/17 13:48:57;;;;;;;7.47;3.72;;;11.00;81.90;;;;;;10044440;28;20045;-68
2020/12/17 13:53:49;;;;;;;7.13;4.07;;;10.90;81.90;;;;;;10039708;28;20057;-68
2020/12/17 13:58:40;;;;;;;6.63;2.63;;;10.90;81.80;;;;;;10041578;28;20541;-68
2020/12/17 14:03:30;;;;;;;8.95;3.63;;;10.90;81.70;;;;;;10033675;28;20084;-67
2020/12/17 14:08:21;;;;;;;5.72;3.95;;;10.90;81.80;;;;;;10035004;28;20026;-67
2020/12/17 14:13:12;;;;;;;6.75;3.70;;;10.90;81.60;;;;;;10039922;28;20041;-65
2020/12/17 14:18:02;;;;;;;7.13;4.78;;;11.00;81.50;;;;;;10036468;28;20025;-65
2020/12/17 14:22:53;;;;;;;5.70;4.18;;;10.90;81.70;;;;;;10044936;28;20037;-67
2020/12/17 14:27:43;;;;;;;7.05;3.42;;;10.90;81.70;;;;;;10038162;28;20037;-68
2020/12/17 14:32:34;;;;;;;5.97;3.70;;;10.80;81.80;;;;;;10040442;28;20057;-64
2020/12/17 14:37:25;;;;;;;5.22;3.40;;;10.70;82.00;;;;;;10038049;28;20061;-65
2020/12/17 14:42:16;;;;;;;6.65;3.58;;;10.70;82.00;;;;;;10041542;28;20106;-64
2020/12/17 14:47:07;;;;;;;9.63;3.88;;;10.70;82.00;;;;;;10035814;28;20046;-66
2020/12/17 14:51:58;;;;;;;8.43;3.75;;;10.70;82.00;;;;;;9991694;28;21471;-66
2020/12/17 14:56:48;;;;;;;7.90;3.88;;;10.70;81.90;;;;;;10030698;28;20041;-66
2020/12/17 15:01:39;;;;;;;7.97;3.95;;;10.70;82.10;;;;;;10038111;28;20506;-67
2020/12/17 15:06:29;;;;;;;6.70;4.75;;;10.70;82.10;;;;;;10039981;28;20060;-67
2020/12/17 15:11:21;;;;;;;7.28;3.92;;;10.60;82.10;;;;;;10036924;28;20076;-65
2020/12/17 15:16:11;;;;;;;7.38;3.72;;;10.60;82.00;;;;;;10037497;28;20048;-65
2020/12/17 15:21:05;;;;;;;8.13;4.90;;;10.60;82.20;;;;;;10040453;28;20387;-65
2020/12/17 15:25:58;;;;;;;7.32;4.63;;;10.70;82.20;;;;;;10035717;28;20601;-65
2020/12/17 15:30:49;;;;;;;8.18;4.13;;;10.70;82.20;;;;;;10042275;28;20056;-64
2020/12/17 15:35:40;;;;;;;7.45;4.32;;;10.60;82.40;;;;;;10041203;28;20069;-64
2020/12/17 15:40:30;;;;;;;8.75;4.38;;;10.70;82.50;;;;;;10031764;28;20021;-64
2020/12/17 15:45:21;;;;;;;5.18;4.20;;;10.70;82.60;;;;;;10036622;28;20032;-64
2020/12/17 15:50:11;;;;;;;7.78;5.13;;;10.60;82.60;;;;;;10038889;28;20047;-64
2020/12/17 15:55:03;;;;;;;7.05;4.32;;;10.70;82.60;;;;;;10036938;28;20037;-64
2020/12/17 15:59:53;;;;;;;5.75;4.40;;;10.60;82.80;;;;;;10039112;28;20033;-63
2020/12/17 16:04:44;;;;;;;6.80;4.40;;;10.60;82.70;;;;;;10033363;28;20115;-63
2020/12/17 16:09:34;;;;;;;6.80;4.40;;;10.60;82.80;;;;;;10037876;28;20063;-64
2020/12/17 16:14:25;;;;;;;9.18;5.18;;;10.50;83.00;;;;;;10038457;28;20377;-64
2020/12/17 16:19:15;;;;;;;9.48;4.97;;;10.60;83.00;;;;;;10043505;28;20492;-65
2020/12/17 16:24:06;;;;;;;8.95;4.68;;;10.60;83.10;;;;;;10046439;28;20026;-64
2020/12/17 16:28:58;;;;;;;12.93;4.90;;;10.50;83.40;;;;;;10043807;28;20021;-65
2020/12/17 16:33:49;;;;;;;7.28;4.95;;;10.60;83.40;;;;;;10041160;28;20037;-64
2020/12/17 16:38:40;;;;;;;8.70;5.15;;;10.50;83.50;;;;;;10046026;28;20037;-65
2020/12/17 16:43:30;;;;;;;9.50;4.85;;;10.50;83.60;;;;;;10047476;28;20029;-65
2020/12/17 16:48:21;;;;;;;6.47;4.78;;;10.50;83.60;;;;;;10043268;28;20041;-64
2020/12/17 16:53:11;;;;;;;11.52;6.05;;;10.50;83.80;;;;;;10041850;28;20037;-64
2020/12/17 16:58:02;;;;;;;9.43;5.63;;;10.40;83.90;;;;;;10048611;28;20103;-63
2020/12/17 17:02:53;;;;;;;8.50;5.60;;;10.30;84.10;;;;;;10042834;28;20064;-62
2020/12/17 17:07:44;;;;;;;9.70;5.32;;;10.30;84.20;;;;;;10045940;28;20693;-63
2020/12/17 17:12:35;;;;;;;13.27;7.50;;;10.30;84.10;;;;;;10041573;28;20038;-64
2020/12/17 17:17:27;;;;;;;13.70;6.85;;;10.30;84.10;;;;;;10046135;28;20038;-65
2020/12/17 17:22:17;;;;;;;10.30;6.55;;;10.10;84.10;;;;;;10041925;28;20432;-64
2020/12/17 17:27:08;;;;;;;12.30;6.88;;;10.00;84.40;;;;;;10045169;28;20057;-66
2020/12/17 17:31:59;;;;;;;13.20;7.13;;;10.00;84.60;;;;;;10038458;28;20033;-65
2020/12/17 17:36:50;;;;;;;10.27;6.10;;;9.90;84.50;;;;;;10042289;28;20120;-64
2020/12/17 17:41:41;;;;;;;10.65;6.88;;;9.90;85.00;;;;;;10039651;28;20582;-64
2020/12/17 17:46:32;;;;;;;12.57;6.80;;;9.90;85.20;;;;;;10039707;28;20036;-65
2020/12/17 17:51:22;;;;;;;11.82;5.95;;;9.80;85.20;;;;;;10041128;28;20124;-65
2020/12/17 17:56:13;;;;;;;11.32;6.28;;;9.80;85.50;;;;;;10041406;28;20036;-66
2020/12/17 18:01:04;;;;;;;10.98;6.43;;;9.80;85.60;;;;;;10042145;28;20772;-64
2020/12/17 18:05:54;;;;;;;15.52;7.55;;;9.70;85.70;;;;;;10044249;28;20032;-63
2020/12/17 18:10:46;;;;;;;11.25;6.55;;;9.70;85.80;;;;;;10036175;28;20033;-65
2020/12/17 18:15:37;;;;;;;14.18;6.45;;;9.60;85.90;;;;;;10041637;28;20025;-63
2020/12/17 18:20:28;;;;;;;12.60;6.80;;;9.60;86.30;;;;;;10037984;28;20492;-65
2020/12/17 18:25:18;;;;;;;10.57;7.88;;;9.60;86.40;;;;;;10037952;28;20040;-65
2020/12/17 18:30:09;;;;;;;11.63;6.43;;;9.70;86.50;;;;;;10034894;28;20069;-64
2020/12/17 18:35:02;;;;;;;10.00;7.00;;;9.70;86.50;;;;;;10042674;28;20519;-64
2020/12/17 18:39:53;;;;;;;9.90;5.55;;;9.60;86.50;;;;;;10034719;28;20063;-65
2020/12/17 18:44:44;;;;;;;11.73;5.45;;;9.50;86.60;;;;;;10040549;28;20065;-62
2020/12/17 18:49:34;;;;;;;11.57;6.35;;;9.50;86.70;;;;;;10038226;28;20041;-64
2020/12/17 18:54:25;;;;;;;14.02;7.60;;;9.40;87.10;;;;;;10037909;28;20045;-66
2020/12/17 18:59:15;;;;;;;11.55;6.72;;;9.30;87.20;;;;;;10041337;28;20047;-64
2020/12/17 19:04:06;;;;;;;10.25;6.60;;;9.30;87.40;;;;;;10039889;28;20026;-62
2020/12/17 19:08:56;;;;;;;11.02;7.35;;;9.30;87.40;;;;;;10037339;28;20057;-64
2020/12/17 19:13:47;;;;;;;12.15;6.95;;;9.30;87.50;;;;;;10036696;28;20030;-65
2020/12/17 19:18:37;;;;;;;12.43;7.32;;;9.30;87.40;;;;;;10031883;28;20033;-64
2020/12/17 19:23:28;;;;;;;14.52;6.72;;;9.20;87.60;;;;;;10032774;28;20040;-62
2020/12/17 19:28:19;;;;;;;11.73;7.13;;;9.20;87.70;;;;;;10039321;28;20060;-62
2020/12/17 19:33:09;;;;;;;14.15;7.68;;;9.20;87.80;;;;;;10031703;28;20041;-62
2020/12/17 19:38:00;;;;;;;15.43;8.73;;;9.10;87.80;;;;;;10040311;28;20096;-60
2020/12/17 19:42:51;;;;;;;11.52;7.75;;;9.10;88.00;;;;;;10038361;28;20076;-62
2020/12/17 19:47:41;;;;;;;14.30;8.20;;;9.10;88.10;;;;;;10039499;28;20063;-62
2020/12/17 19:52:32;;;;;;;17.92;8.98;;;9.00;88.20;;;;;;10036911;28;20033;-62
2020/12/17 19:57:23;;;;;;;15.77;8.02;;;9.00;88.40;;;;;;10043716;28;20033;-63
2020/12/17 20:02:13;;;;;;;15.20;8.20;;;8.90;88.50;;;;;;10046208;28;20030;-62
2020/12/17 20:07:10;;;;;;;14.10;8.75;;;8.90;88.70;;;;;;10045130;28;20037;-63
2020/12/17 20:12:01;;;;;;;15.02;7.63;;;8.80;88.70;;;;;;10044991;28;20052;-63
2020/12/17 20:16:52;;;;;;;14.57;9.20;;;8.80;89.50;;;;;;10036823;28;20050;-63
2020/12/17 20:21:43;;;;;;;20.45;10.20;;;8.80;88.90;;;;;;10038494;28;20514;-63
2020/12/17 20:26:34;;;;;;;21.10;10.57;;;8.70;89.00;;;;;;10042029;28;20032;-64
2020/12/17 20:31:25;;;;;;;15.95;10.30;;;8.70;89.10;;;;;;10044611;28;20065;-63
2020/12/17 20:36:24;;;;;;;14.93;8.25;;;8.70;89.20;;;;;;10042721;28;20042;-63
2020/12/17 20:41:28;;;;;;;15.13;8.30;;;8.70;89.20;;;;;;10054301;28;20041;-63
2020/12/17 20:46:20;;;;;;;16.70;9.38;;;8.70;89.40;;;;;;10043389;28;20159;-63
2020/12/17 20:51:12;;;;;;;18.80;9.30;;;8.60;89.30;;;;;;10044733;28;20539;-63
2020/12/17 20:56:04;;;;;;;15.32;8.75;;;8.70;89.40;;;;;;10034329;28;20525;-63
2020/12/17 21:00:54;;;;;;;14.45;8.45;;;8.70;89.50;;;;;;10043785;28;20041;-62
2020/12/17 21:05:45;;;;;;;16.73;7.82;;;8.60;89.60;;;;;;10036780;28;20025;-62
2020/12/17 21:10:35;;;;;;;17.83;8.60;;;8.60;89.40;;;;;;10037036;28;20484;-63
2020/12/17 21:15:26;;;;;;;13.00;7.18;;;8.50;89.50;;;;;;10041115;28;20053;-62
2020/12/17 21:20:17;;;;;;;13.93;9.63;;;8.50;89.60;;;;;;10038384;28;20119;-61
2020/12/17 21:25:08;;;;;;;15.20;8.75;;;8.50;90.10;;;;;;10032717;28;20038;-63
2020/12/17 21:29:58;;;;;;;11.70;7.50;;;8.50;89.80;;;;;;10028632;28;20113;-62
2020/12/17 21:34:49;;;;;;;16.85;7.82;;;8.50;89.80;;;;;;10031195;28;20500;-62
2020/12/17 21:39:40;;;;;;;10.73;6.72;;;8.40;89.70;;;;;;10038720;28;20067;-62
2020/12/17 21:44:30;;;;;;;12.63;7.13;;;8.40;90.20;;;;;;10035353;28;20030;-62
2020/12/17 21:49:21;;;;;;;11.60;7.43;;;8.30;89.80;;;;;;10035823;28;20048;-63
2020/12/17 21:54:11;;;;;;;15.13;8.27;;;8.30;90.00;;;;;;10040621;28;20048;-64
2020/12/17 21:59:02;;;;;;;15.05;8.05;;;8.30;90.00;;;;;;10044681;28;20033;-62
2020/12/17 22:03:52;;;;;;;13.35;7.63;;;8.30;90.30;;;;;;10037320;28;20042;-62
2020/12/17 22:08:43;;;;;;;12.45;7.50;;;8.30;90.00;;;;;;10044061;28;20028;-67
2020/12/17 22:13:34;;;;;;;13.80;7.55;;;8.30;90.10;;;;;;10040133;28;20400;-63
2020/12/17 22:18:24;;;;;;;14.55;8.07;;;8.20;90.10;;;;;;10035635;28;20040;-63
2020/12/17 22:23:15;;;;;;;14.45;8.85;;;8.20;90.10;;;;;;10041164;28;20039;-63
2020/12/17 22:28:06;;;;;;;14.63;8.65;;;8.20;90.10;;;;;;10034626;28;20025;-62
2020/12/17 22:32:56;;;;;;;13.35;8.10;;;8.10;90.10;;;;;;10035295;28;20400;-63
2020/12/17 22:37:47;;;;;;;12.85;7.10;;;8.10;90.40;;;;;;10032659;28;20029;-62
2020/12/17 22:42:37;;;;;;;11.57;8.05;;;8.10;90.20;;;;;;10038786;28;20303;-63
2020/12/17 22:47:28;;;;;;;11.27;7.40;;;8.00;90.20;;;;;;10034627;28;20058;-63
2020/12/17 22:52:18;;;;;;;17.10;8.38;;;8.00;90.20;;;;;;10037061;28;21322;-62
2020/12/17 22:57:09;;;;;;;14.10;8.02;;;8.00;90.20;;;;;;10035726;28;20115;-62
2020/12/17 23:02:00;;;;;;;11.73;6.55;;;8.00;90.30;;;;;;10032586;28;20686;-62
2020/12/17 23:06:50;;;;;;;11.25;6.93;;;7.90;90.20;;;;;;10033181;28;20035;-62
2020/12/17 23:11:41;;;;;;;10.27;6.78;;;7.90;90.20;;;;;;10035844;28;20033;-61
2020/12/17 23:16:34;;;;;;;11.25;7.07;;;7.90;90.20;;;;;;10040824;28;20491;-62
2020/12/17 23:21:25;;;;;;;11.10;6.32;;;7.80;90.20;;;;;;10033339;28;20938;-62
2020/12/17 23:26:16;;;;;;;12.93;7.03;;;7.80;90.50;;;;;;10033360;28;20037;-62
2020/12/17 23:31:14;;;;;;;11.35;6.90;;;7.80;90.40;;;;;;10035490;28;20042;-62
2020/12/17 23:36:05;;;;;;;9.90;6.53;;;7.80;90.40;;;;;;10038824;28;20044;-61
2020/12/17 23:40:55;;;;;;;10.80;6.50;;;7.80;90.30;;;;;;10040347;28;20435;-62
2020/12/17 23:45:46;;;;;;;13.95;7.32;;;7.80;90.40;;;;;;10036475;28;20084;-63
2020/12/17 23:50:36;;;;;;;14.80;7.63;;;7.70;90.40;;;;;;10040595;28;20118;-62
2020/12/17 23:55:27;;;;;;;13.75;8.07;;;7.70;90.50;;;;;;10032405;28;20432;-62
